Time;durP1;ratioP1;P1;durP2;ratioP2;P2;SDS_P1;SDS_P2;PMS_P1;PMS_P2;Temp;Humidity;BMP_temperature;BMP_pressure;BME280_temperature;BME280_humidity;BME280_pressure;Samples;Min_cycle;Max_cycle;Signal;HPM_P1;HPM_P2
2023/08/10 00:00:30;;;;;;;8.85;3.88;;;;;;;10.23;100.00;93433.03;2106151;28;20050;-81
2023/08/10 00:01:31;;;;;;;7.38;3.88;;;;;;;10.23;100.00;93433.03;2106448;28;20117;-81
2023/08/10 00:02:32;;;;;;;7.60;3.47;;;;;;;10.26;100.00;93435.66;2096855;28;20566;-81
2023/08/10 00:03:33;;;;;;;4.03;3.60;;;;;;;10.27;100.00;93428.41;2092465;28;20056;-82
2023/08/10 00:04:34;;;;;;;5.15;3.50;;;;;;;10.36;100.00;93425.97;2089271;28;20025;-80
2023/08/10 00:05:37;;;;;;;7.53;3.78;;;;;;;10.42;100.00;93423.59;2091238;28;20050;-82
2023/08/10 00:06:39;;;;;;;5.00;3.60;;;;;;;10.55;100.00;93430.63;2098402;28;20025;-80
2023/08/10 00:07:40;;;;;;;5.78;3.90;;;;;;;10.55;100.00;93433.28;2098155;28;20028;-81
2023/08/10 00:08:41;;;;;;;6.55;3.85;;;;;;;10.56;100.00;93436.72;2098289;28;20017;-82
2023/08/10 00:09:42;;;;;;;6.63;4.05;;;;;;;10.55;100.00;93425.28;2089822;28;20359;-80
2023/08/10 00:10:43;;;;;;;9.18;4.47;;;;;;;10.55;100.00;93425.28;2089212;28;20028;-81
2023/08/10 00:11:44;;;;;;;6.07;4.43;;;;;;;10.48;100.00;93428.06;2098236;28;20052;-81
2023/08/10 00:12:44;;;;;;;7.63;4.47;;;;;;;10.49;100.00;93431.47;2093172;28;20091;-81
2023/08/10 00:13:45;;;;;;;6.20;4.13;;;;;;;10.47;100.00;93433.81;2098183;28;20042;-81
2023/08/10 00:14:46;;;;;;;7.35;4.30;;;;;;;10.60;100.00;93432.06;2106175;28;20062;-81
2023/08/10 00:15:47;;;;;;;7.00;4.85;;;;;;;10.64;100.00;93442.72;2104524;28;20033;-81
2023/08/10 00:16:48;;;;;;;7.10;4.68;;;;;;;10.62;100.00;93432.41;2101916;28;20086;-81
2023/08/10 00:17:49;;;;;;;10.55;4.55;;;;;;;10.59;100.00;93433.25;2103065;28;20185;-80
2023/08/10 00:18:50;;;;;;;6.78;5.05;;;;;;;10.73;100.00;93432.25;2093044;28;20489;-80
2023/08/10 00:19:51;;;;;;;6.90;4.88;;;;;;;10.54;100.00;93429.13;2090694;28;20029;-82
2023/08/10 00:20:52;;;;;;;9.15;4.75;;;;;;;10.64;100.00;93438.13;2114351;28;20500;-80
2023/08/10 00:21:53;;;;;;;9.30;4.50;;;;;;;10.52;100.00;93438.69;2114717;28;20031;-81
2023/08/10 00:22:54;;;;;;;7.22;4.43;;;;;;;10.48;100.00;93436.06;2097718;28;20115;-80
2023/08/10 00:23:56;;;;;;;7.63;4.80;;;;;;;10.61;100.00;93438.94;2106149;28;20030;-81
2023/08/10 00:24:58;;;;;;;10.10;4.80;;;;;;;10.60;100.00;93432.06;2106863;28;20028;-81
2023/08/10 00:25:59;;;;;;;11.45;4.72;;;;;;;10.71;100.00;93435.34;2103314;28;20356;-82
2023/08/10 00:27:01;;;;;;;5.38;4.03;;;;;;;10.68;100.00;93435.38;2106206;28;20476;-80
2023/08/10 00:28:02;;;;;;;6.80;4.32;;;;;;;10.61;100.00;93438.16;2089366;28;20035;-82
2023/08/10 00:29:03;;;;;;;8.57;4.28;;;;;;;10.66;100.00;93429.69;2081323;28;20061;-81
2023/08/10 00:30:09;;;;;;;7.60;4.60;;;;;;;10.74;100.00;93439.09;2081513;28;20060;-81
2023/08/10 00:31:10;;;;;;;6.15;4.13;;;;;;;10.74;100.00;93429.16;2090072;28;20025;-80
2023/08/10 00:32:11;;;;;;;11.18;4.63;;;;;;;10.73;100.00;93429.56;2105385;28;20525;-80
2023/08/10 00:33:11;;;;;;;10.25;4.68;;;;;;;10.73;100.00;93442.94;2101548;28;20020;-80
2023/08/10 00:34:13;;;;;;;9.18;4.47;;;;;;;10.80;100.00;93432.13;2091801;28;20060;-82
2023/08/10 00:35:14;;;;;;;7.75;4.32;;;;;;;10.86;100.00;93429.72;2098206;28;20025;-81
2023/08/10 00:36:15;;;;;;;7.70;4.45;;;;;;;10.84;100.00;93430.91;2092894;28;20400;-81
2023/08/10 00:37:16;;;;;;;6.88;4.13;;;;;;;10.92;100.00;93430.75;2089742;28;20025;-81
2023/08/10 00:38:17;;;;;;;8.65;4.53;;;;;;;10.91;100.00;93432.69;2098038;28;20082;-82
2023/08/10 00:39:18;;;;;;;5.43;4.30;;;;;;;11.01;100.00;93436.31;2089917;28;20390;-81
2023/08/10 00:40:19;;;;;;;11.50;4.50;;;;;;;11.08;100.00;93436.94;2098127;28;20029;-82
2023/08/10 00:41:20;;;;;;;8.40;4.68;;;;;;;10.94;100.00;93431.88;2098150;28;20035;-81
2023/08/10 00:42:21;;;;;;;7.35;4.60;;;;;;;10.88;100.00;93430.06;2106635;28;20024;-80
2023/08/10 00:43:24;;;;;;;9.82;4.60;;;;;;;10.93;100.00;93432.25;2098089;28;20025;-81
2023/08/10 00:44:25;;;;;;;7.32;5.10;;;;;;;10.96;100.00;93426.09;2098599;28;20073;-82
2023/08/10 00:45:27;;;;;;;6.32;4.22;;;;;;;10.97;100.00;93436.38;2106806;28;20507;-81
2023/08/10 00:46:29;;;;;;;6.53;4.63;;;;;;;11.06;100.00;93428.59;2106576;28;20028;-81
2023/08/10 00:47:30;;;;;;;5.75;4.22;;;;;;;11.10;100.00;93442.63;2102239;28;20025;-82
2023/08/10 00:48:31;;;;;;;7.35;4.90;;;;;;;11.14;100.00;93433.78;2106241;28;20031;-81
2023/08/10 00:49:33;;;;;;;6.68;4.50;;;;;;;11.13;100.00;93433.03;2102460;28;20024;-81
2023/08/10 00:50:34;;;;;;;6.20;4.30;;;;;;;11.16;100.00;93431.47;2098084;28;20547;-82
2023/08/10 00:51:35;;;;;;;10.35;5.35;;;;;;;11.22;100.00;93438.59;2103147;28;20028;-81
2023/08/10 00:52:36;;;;;;;7.75;4.65;;;;;;;11.23;100.00;93440.09;2097629;28;20067;-82
2023/08/10 00:53:39;;;;;;;7.80;4.68;;;;;;;11.36;100.00;93432.22;2105902;28;20024;-82
2023/08/10 00:54:40;;;;;;;7.40;4.32;;;;;;;11.17;100.00;93441.75;2101299;28;20027;-82
2023/08/10 00:55:42;;;;;;;10.82;4.28;;;;;;;11.12;100.00;93433.47;2106459;28;20046;-82
2023/08/10 00:56:43;;;;;;;6.43;4.20;;;;;;;11.08;100.00;93436.94;2089100;28;20029;-80
2023/08/10 00:57:44;;;;;;;11.35;5.03;;;;;;;11.14;100.00;93439.16;2089485;28;20056;-82
2023/08/10 00:58:45;;;;;;;6.50;4.20;;;;;;;11.13;100.00;93441.06;2089348;28;20025;-80
2023/08/10 00:59:47;;;;;;;8.23;4.22;;;;;;;11.09;100.00;93435.78;2089357;28;20041;-82
2023/08/10 01:00:48;;;;;;;6.50;4.10;;;;;;;11.13;100.00;93437.66;2102183;28;20031;-81
2023/08/10 01:01:50;;;;;;;7.07;4.22;;;;;;;11.15;100.00;93437.97;2113761;28;20035;-82
2023/08/10 01:02:51;;;;;;;10.05;4.85;;;;;;;11.18;100.00;93437.16;2106160;28;20024;-81
2023/08/10 01:03:52;;;;;;;7.28;4.55;;;;;;;11.19;100.00;93442.09;2097192;28;20024;-82
2023/08/10 01:04:53;;;;;;;4.88;4.20;;;;;;;11.18;100.00;93437.91;2086280;28;20032;-80
2023/08/10 01:06:10;;;;;;;8.75;4.18;;;;;;;11.20;100.00;93448.97;2089523;28;20052;-80
2023/08/10 01:07:31;;;;;;;9.77;5.07;;;;;;;11.21;100.00;93442.44;2093368;28;20027;-81
2023/08/10 01:08:54;;;;;;;7.75;4.55;;;;;;;11.25;100.00;93443.13;2099904;28;20670;-82
2023/08/10 01:10:14;;;;;;;5.78;4.00;;;;;;;11.25;100.00;93440.47;2100417;28;20035;-81
2023/08/10 01:11:39;;;;;;;6.90;4.55;;;;;;;11.27;100.00;93440.78;2106363;28;20026;-82
2023/08/10 01:12:49;;;;;;;6.97;4.28;;;;;;;11.26;100.00;93449.25;2089467;28;20040;-81
2023/08/10 01:14:19;;;;;;;8.52;4.60;;;;;;;11.26;100.00;93446.56;2090614;28;20021;-82
2023/08/10 01:15:37;;;;;;;7.93;4.35;;;;;;;11.30;100.00;93444.59;2103714;28;20024;-81
2023/08/10 01:16:41;;;;;;;7.78;4.32;;;;;;;11.30;100.00;93442.66;2105807;28;20352;-82
2023/08/10 01:17:55;;;;;;;5.28;4.25;;;;;;;11.30;100.00;93439.97;2097334;28;20033;-82
2023/08/10 01:18:57;;;;;;;7.80;4.60;;;;;;;11.30;100.00;93439.97;2105522;28;20035;-82
2023/08/10 01:20:07;;;;;;;6.30;4.15;;;;;;;11.32;100.00;93442.25;2094701;28;20020;-81
2023/08/10 01:21:27;;;;;;;10.18;4.57;;;;;;;11.35;100.00;93442.16;2075475;28;20514;-82
2023/08/10 01:22:41;;;;;;;6.25;4.22;;;;;;;11.40;100.00;93440.94;2084251;28;20127;-82
2023/08/10 01:23:46;;;;;;;8.95;4.32;;;;;;;11.40;100.00;93438.25;2099046;28;20034;-81
2023/08/10 01:25:05;;;;;;;11.55;5.07;;;;;;;11.47;100.00;93440.81;2107324;28;20027;-82
2023/08/10 01:26:08;;;;;;;6.07;4.47;;;;;;;11.46;100.00;93447.34;2108427;28;20035;-81
2023/08/10 01:27:11;;;;;;;9.70;4.53;;;;;;;11.52;100.00;93445.66;2105327;28;20377;-81
2023/08/10 01:28:12;;;;;;;6.43;4.30;;;;;;;11.55;100.00;93446.78;2105896;28;20020;-82
2023/08/10 01:29:15;;;;;;;9.27;4.65;;;;;;;11.54;100.00;93448.69;2097820;28;20078;-82
2023/08/10 01:30:16;;;;;;;12.30;4.70;;;;;;;11.53;100.00;93455.19;2106078;28;20481;-81
2023/08/10 01:31:21;;;;;;;7.82;4.78;;;;;;;11.55;100.00;93455.56;2114068;28;20016;-81
2023/08/10 01:32:22;;;;;;;9.00;4.53;;;;;;;11.52;100.00;93451.03;2105831;28;20043;-81
2023/08/10 01:33:23;;;;;;;5.70;4.15;;;;;;;11.58;100.00;93451.28;2113689;28;20430;-81
2023/08/10 01:34:24;;;;;;;8.45;5.30;;;;;;;11.55;100.00;93454.81;2115048;28;20038;-81
2023/08/10 01:35:25;;;;;;;9.18;4.78;;;;;;;11.51;100.00;93451.44;2105467;28;20020;-81
2023/08/10 01:36:26;;;;;;;9.77;4.80;;;;;;;11.53;100.00;93452.53;2088876;28;20115;-81
2023/08/10 01:37:29;;;;;;;6.93;4.60;;;;;;;11.51;100.00;93452.19;2097381;28;20028;-82
2023/08/10 01:38:38;;;;;;;8.68;4.60;;;;;;;11.50;100.00;93458.72;2105311;28;20035;-81
2023/08/10 01:39:39;;;;;;;11.05;5.60;;;;;;;11.53;100.00;93459.81;2090933;28;20021;-81
2023/08/10 01:40:40;;;;;;;6.05;4.70;;;;;;;11.60;100.00;93447.03;2089555;28;20024;-81
2023/08/10 01:41:42;;;;;;;10.90;5.30;;;;;;;11.64;100.00;93446.97;2092161;28;20051;-81
2023/08/10 01:42:44;;;;;;;8.88;4.90;;;;;;;11.62;100.00;93451.97;2105762;28;20058;-82
2023/08/10 01:43:45;;;;;;;7.85;4.68;;;;;;;11.66;100.00;93454.59;2105329;28;20142;-82
2023/08/10 01:44:46;;;;;;;8.93;4.68;;;;;;;11.64;100.00;93456.94;2105267;28;20039;-82
2023/08/10 01:45:51;;;;;;;6.75;4.90;;;;;;;11.66;100.00;93457.25;2101565;28;20527;-81
2023/08/10 01:46:55;;;;;;;10.07;4.47;;;;;;;11.67;100.00;93453.41;2093626;28;20450;-80
2023/08/10 01:48:09;;;;;;;7.13;4.43;;;;;;;11.66;100.00;93457.25;2099018;28;20319;-80
2023/08/10 01:49:11;;;;;;;7.05;4.20;;;;;;;11.61;100.00;93455.81;2099355;28;20024;-81
2023/08/10 01:50:15;;;;;;;6.30;5.20;;;;;;;11.64;100.00;93456.94;2097395;28;20031;-82
2023/08/10 01:51:22;;;;;;;7.32;5.22;;;;;;;11.63;100.00;93455.41;2102060;28;20047;-82
2023/08/10 01:52:30;;;;;;;6.25;4.78;;;;;;;11.64;100.00;93455.00;2096813;28;20461;-81
2023/08/10 01:53:34;;;;;;;8.73;4.70;;;;;;;11.75;100.00;93457.44;2084429;28;20043;-81
2023/08/10 01:54:36;;;;;;;6.95;4.80;;;;;;;11.81;100.00;93456.56;2088181;28;20040;-81
2023/08/10 01:55:37;;;;;;;10.40;4.80;;;;;;;11.83;100.00;93459.59;2097264;28;20023;-80
2023/08/10 01:56:38;;;;;;;7.90;5.00;;;;;;;11.83;100.00;93461.53;2106936;28;20460;-81
2023/08/10 01:57:39;;;;;;;8.38;4.32;;;;;;;11.80;100.00;93460.38;2105535;28;20020;-81
2023/08/10 01:58:41;;;;;;;10.60;4.78;;;;;;;11.80;100.00;93451.59;2096412;28;20055;-81
2023/08/10 01:59:42;;;;;;;7.32;4.78;;;;;;;11.81;100.00;93461.16;2097493;28;20066;-81
2023/08/10 02:00:44;;;;;;;8.40;4.78;;;;;;;11.79;100.00;93455.47;2096733;28;20077;-81
2023/08/10 02:01:45;;;;;;;7.50;4.95;;;;;;;11.77;100.00;93455.88;2105016;28;20032;-81
2023/08/10 02:02:46;;;;;;;10.93;4.63;;;;;;;11.76;100.00;93454.34;2097305;28;20388;-82
2023/08/10 02:03:47;;;;;;;8.80;5.00;;;;;;;11.73;100.00;93457.13;2093038;28;20043;-81
2023/08/10 02:04:48;;;;;;;10.05;4.88;;;;;;;11.71;100.00;93454.84;2105565;28;20051;-81
2023/08/10 02:05:49;;;;;;;13.15;5.20;;;;;;;11.73;100.00;93459.81;2104514;28;20061;-81
2023/08/10 02:06:50;;;;;;;6.57;4.40;;;;;;;11.72;100.00;93453.69;2105207;28;20024;-81
2023/08/10 02:07:51;;;;;;;7.75;5.10;;;;;;;11.82;100.00;93457.31;2097273;28;20436;-81
2023/08/10 02:08:52;;;;;;;7.25;4.82;;;;;;;11.86;100.00;93458.03;2105138;28;20460;-81
2023/08/10 02:09:53;;;;;;;10.13;4.93;;;;;;;11.90;100.00;93456.03;2097383;28;20044;-83
2023/08/10 02:10:54;;;;;;;9.13;4.88;;;;;;;11.89;100.00;93456.44;2105107;28;20028;-81
2023/08/10 02:12:00;;;;;;;10.63;5.38;;;;;;;11.86;100.00;93458.03;2105252;28;20521;-82
2023/08/10 02:13:01;;;;;;;8.50;4.40;;;;;;;11.85;100.00;93451.13;2106493;28;20019;-81
2023/08/10 02:14:02;;;;;;;8.30;5.00;;;;;;;11.82;100.00;93455.41;2104768;28;20357;-81
2023/08/10 02:15:05;;;;;;;9.15;5.10;;;;;;;11.83;100.00;93456.91;2097136;28;20040;-82
2023/08/10 02:16:06;;;;;;;11.07;5.35;;;;;;;11.83;100.00;93456.16;2114081;28;20395;-80
2023/08/10 02:17:10;;;;;;;10.50;5.10;;;;;;;11.85;100.00;93453.81;2105231;28;20028;-81
2023/08/10 02:18:12;;;;;;;9.00;5.22;;;;;;;11.95;100.00;93454.78;2089606;28;20025;-82
2023/08/10 02:19:14;;;;;;;7.18;4.53;;;;;;;11.99;100.00;93455.47;2097399;28;20070;-81
2023/08/10 02:20:15;;;;;;;6.43;4.70;;;;;;;11.97;100.00;93458.53;2097037;28;20024;-82
2023/08/10 02:21:16;;;;;;;8.77;4.95;;;;;;;11.95;100.00;93455.53;2097307;28;20028;-80
2023/08/10 02:22:17;;;;;;;9.93;4.88;;;;;;;11.93;100.00;93449.06;2095624;28;20477;-80
2023/08/10 02:23:18;;;;;;;6.72;4.78;;;;;;;11.95;100.00;93450.19;2089065;28;20691;-81
2023/08/10 02:24:19;;;;;;;9.05;4.75;;;;;;;11.88;100.00;93450.31;2096413;28;20028;-82
2023/08/10 02:25:22;;;;;;;8.93;4.70;;;;;;;11.91;100.00;93452.19;2094918;28;22623;-81
2023/08/10 02:26:23;;;;;;;6.72;4.93;;;;;;;11.95;100.00;93447.50;2106029;28;20103;-80
2023/08/10 02:27:24;;;;;;;9.90;5.47;;;;;;;11.89;100.00;93448.38;2114210;28;20028;-82
2023/08/10 02:28:28;;;;;;;7.93;5.18;;;;;;;11.83;100.00;93445.47;2113663;28;20027;-81
2023/08/10 02:29:29;;;;;;;7.05;4.95;;;;;;;11.79;100.00;93444.75;2105602;28;20020;-81
2023/08/10 02:30:30;;;;;;;8.07;4.35;;;;;;;11.77;100.00;93449.78;2105087;28;20650;-81
2023/08/10 02:31:31;;;;;;;9.13;5.03;;;;;;;11.73;100.00;93446.41;2105601;28;20133;-81
2023/08/10 02:32:34;;;;;;;11.00;5.00;;;;;;;11.72;100.00;93448.34;2088934;28;20074;-80
2023/08/10 02:33:34;;;;;;;9.13;4.85;;;;;;;11.72;100.00;93447.56;2100607;28;20555;-81
2023/08/10 02:34:35;;;;;;;6.45;4.70;;;;;;;11.73;100.00;93443.75;2097045;28;20024;-82
2023/08/10 02:35:36;;;;;;;9.73;4.50;;;;;;;11.70;100.00;93441.88;2085509;28;20394;-81
2023/08/10 02:36:37;;;;;;;8.60;5.05;;;;;;;11.64;100.00;93432.84;2099968;28;20066;-81
2023/08/10 02:37:39;;;;;;;8.68;4.95;;;;;;;11.64;100.00;93435.50;2113344;28;20035;-82
2023/08/10 02:38:40;;;;;;;13.10;5.43;;;;;;;11.61;100.00;93439.75;2105285;28;20020;-81
2023/08/10 02:39:41;;;;;;;6.57;5.07;;;;;;;11.53;100.00;93433.78;2097070;28;20033;-80
2023/08/10 02:40:42;;;;;;;10.55;5.00;;;;;;;11.52;100.00;93437.63;2088267;28;20028;-81
2023/08/10 02:41:43;;;;;;;6.97;4.70;;;;;;;11.52;100.00;93434.97;2097279;28;20490;-82
2023/08/10 02:42:44;;;;;;;8.05;4.72;;;;;;;11.45;100.00;93429.00;2105251;28;20272;-82
2023/08/10 02:43:45;;;;;;;9.93;4.80;;;;;;;11.35;100.00;93431.47;2104326;28;20058;-83
2023/08/10 02:44:49;;;;;;;7.55;4.40;;;;;;;11.29;100.00;93440.41;2105326;28;20373;-81
2023/08/10 02:45:51;;;;;;;5.75;4.30;;;;;;;11.28;100.00;93430.84;2103645;28;20024;-81
2023/08/10 02:46:52;;;;;;;7.25;4.63;;;;;;;11.28;100.00;93438.88;2096699;28;20111;-80
2023/08/10 02:47:53;;;;;;;6.80;4.65;;;;;;;11.12;100.00;93433.47;2092275;28;20103;-81
2023/08/10 02:48:54;;;;;;;7.20;5.00;;;;;;;11.12;100.00;93434.22;2101073;28;20081;-81
2023/08/10 02:49:55;;;;;;;9.93;5.03;;;;;;;11.02;100.00;93435.19;2114071;28;20028;-81
2023/08/10 02:50:56;;;;;;;7.32;4.85;;;;;;;10.89;100.00;93437.69;2113448;28;20027;-81
2023/08/10 02:51:59;;;;;;;6.53;4.38;;;;;;;10.89;100.00;93432.34;2105144;28;20058;-82
2023/08/10 02:52:59;;;;;;;5.72;4.20;;;;;;;10.84;100.00;93430.13;2097805;28;20025;-81
2023/08/10 02:54:00;;;;;;;11.27;4.85;;;;;;;10.84;100.00;93438.16;2114175;28;20015;-81
2023/08/10 02:55:03;;;;;;;11.15;4.68;;;;;;;10.85;100.00;93431.66;2105828;28;20058;-81
2023/08/10 02:56:04;;;;;;;11.40;4.78;;;;;;;10.90;100.00;93433.09;2097341;28;20024;-82
2023/08/10 02:57:05;;;;;;;8.32;4.63;;;;;;;10.92;100.00;93431.50;2105354;28;20115;-81
2023/08/10 02:58:06;;;;;;;9.70;4.82;;;;;;;10.83;100.00;93426.69;2105666;28;20120;-81
2023/08/10 02:59:07;;;;;;;6.30;4.60;;;;;;;10.86;100.00;93437.75;2105321;28;20030;-81
2023/08/10 03:00:12;;;;;;;7.35;4.45;;;;;;;10.87;100.00;93437.34;2105571;28;20024;-81
2023/08/10 03:01:13;;;;;;;5.68;4.75;;;;;;;10.72;100.00;93436.09;2105216;28;20400;-81
2023/08/10 03:02:17;;;;;;;8.85;4.85;;;;;;;10.66;100.00;93440.38;2096688;28;20024;-80
2023/08/10 03:03:18;;;;;;;12.73;4.90;;;;;;;10.68;100.00;93440.75;2097518;28;20069;-81
2023/08/10 03:04:19;;;;;;;8.30;4.45;;;;;;;10.68;100.00;93440.75;2097003;28;20024;-81
2023/08/10 03:05:20;;;;;;;9.43;4.82;;;;;;;10.70;100.00;93436.47;2113630;28;20031;-81
2023/08/10 03:06:22;;;;;;;9.73;5.10;;;;;;;10.69;100.00;93440.31;2105385;28;20032;-82
2023/08/10 03:07:23;;;;;;;9.07;5.00;;;;;;;10.53;100.00;93437.53;2113580;28;20015;-83
2023/08/10 03:08:24;;;;;;;8.63;5.30;;;;;;;10.45;100.00;93439.59;2113651;28;20118;-81
2023/08/10 03:09:25;;;;;;;7.05;4.40;;;;;;;10.42;100.00;93439.63;2104979;28;20099;-82
2023/08/10 03:10:26;;;;;;;6.22;4.57;;;;;;;10.54;100.00;93433.72;2096794;28;20024;-81
2023/08/10 03:11:27;;;;;;;9.48;4.82;;;;;;;10.40;100.00;93433.91;2096827;28;20797;-81
2023/08/10 03:12:28;;;;;;;10.13;4.88;;;;;;;10.44;100.00;93437.28;2105152;28;20098;-83
2023/08/10 03:13:29;;;;;;;5.32;4.00;;;;;;;10.41;100.00;93438.13;2105696;28;20078;-83
2023/08/10 03:14:30;;;;;;;7.55;4.75;;;;;;;10.35;100.00;93440.47;2096486;28;20091;-81
2023/08/10 03:15:31;;;;;;;7.63;3.92;;;;;;;10.36;100.00;93436.69;2096724;28;20020;-82
2023/08/10 03:16:32;;;;;;;12.52;4.95;;;;;;;10.38;100.00;93439.69;2099441;28;20048;-82
2023/08/10 03:17:33;;;;;;;11.60;4.65;;;;;;;10.34;100.00;93436.31;2098069;28;20028;-81
2023/08/10 03:18:34;;;;;;;7.32;4.38;;;;;;;10.25;100.00;93441.41;2097969;28;20081;-82
2023/08/10 03:19:35;;;;;;;7.05;4.32;;;;;;;10.25;100.00;93438.75;2097658;28;20480;-81
2023/08/10 03:20:36;;;;;;;7.60;4.55;;;;;;;10.18;100.00;93433.47;2106524;28;20028;-81
2023/08/10 03:21:37;;;;;;;9.20;4.60;;;;;;;10.17;100.00;93442.66;2106926;28;20023;-82
2023/08/10 03:22:39;;;;;;;7.00;4.43;;;;;;;10.12;100.00;93438.53;2114952;28;20036;-82
2023/08/10 03:23:40;;;;;;;7.88;4.70;;;;;;;10.07;100.00;93439.72;2106698;28;20505;-81
2023/08/10 03:24:41;;;;;;;5.78;4.28;;;;;;;10.09;100.00;93440.06;2106920;28;20024;-82
2023/08/10 03:25:42;;;;;;;5.88;4.00;;;;;;;10.09;100.00;93439.31;2098071;28;20028;-80
2023/08/10 03:26:43;;;;;;;8.02;4.35;;;;;;;10.10;100.00;93443.53;2098421;28;20036;-82
2023/08/10 03:27:44;;;;;;;5.00;4.13;;;;;;;10.07;100.00;93442.41;2106541;28;20028;-81
2023/08/10 03:28:46;;;;;;;7.68;4.30;;;;;;;10.08;100.00;93443.91;2106633;28;20465;-82
2023/08/10 03:29:47;;;;;;;7.68;4.40;;;;;;;10.06;100.00;93437.47;2098725;28;20123;-81
2023/08/10 03:30:48;;;;;;;6.60;4.22;;;;;;;10.00;100.00;93442.50;2097867;28;20028;-82
2023/08/10 03:31:53;;;;;;;7.13;3.70;;;;;;;9.93;100.00;93434.59;2090839;28;20028;-81
2023/08/10 03:32:56;;;;;;;7.75;4.10;;;;;;;9.98;100.00;93433.38;2105578;28;20035;-81
2023/08/10 03:33:57;;;;;;;8.27;4.20;;;;;;;9.92;100.00;93433.09;2115146;28;20483;-82
2023/08/10 03:34:57;;;;;;;9.07;4.30;;;;;;;9.96;100.00;93435.69;2115284;28;20016;-80
2023/08/10 03:35:58;;;;;;;5.72;4.13;;;;;;;9.87;100.00;93432.78;2097349;28;20107;-81
2023/08/10 03:36:59;;;;;;;7.25;4.40;;;;;;;9.90;100.00;93432.72;2106789;28;20031;-80
2023/08/10 03:38:00;;;;;;;6.40;4.15;;;;;;;9.87;100.00;93430.84;2122694;27;20403;-82
2023/08/10 03:39:01;;;;;;;7.97;4.72;;;;;;;9.94;100.00;93432.69;2114891;28;20051;-81
2023/08/10 03:40:03;;;;;;;7.90;4.38;;;;;;;9.92;100.00;93432.31;2106812;28;20032;-82
2023/08/10 03:41:04;;;;;;;7.40;4.47;;;;;;;9.86;100.00;93436.59;2098084;28;20416;-81
2023/08/10 03:42:05;;;;;;;6.53;4.38;;;;;;;9.80;100.00;93434.41;2106680;28;20032;-80
2023/08/10 03:43:06;;;;;;;7.03;4.55;;;;;;;9.80;100.00;93433.63;2110329;28;20023;-81
2023/08/10 03:44:08;;;;;;;6.07;4.15;;;;;;;9.77;100.00;93439.78;2110986;28;20020;-81
2023/08/10 03:45:09;;;;;;;7.93;3.72;;;;;;;9.80;100.00;93441.66;2106652;28;20055;-81
2023/08/10 03:46:10;;;;;;;6.18;4.55;;;;;;;9.86;100.00;93442.69;2106492;28;20024;-81
2023/08/10 03:47:11;;;;;;;8.02;4.20;;;;;;;9.77;100.00;93443.19;2114831;28;20050;-81
2023/08/10 03:48:12;;;;;;;8.32;4.35;;;;;;;9.73;100.00;93441.75;2115672;28;20024;-81
2023/08/10 03:49:13;;;;;;;7.82;3.97;;;;;;;9.67;100.00;93443.34;2114835;28;20095;-82
2023/08/10 03:50:14;;;;;;;10.90;4.78;;;;;;;9.77;100.00;93450.44;2098379;28;20386;-82
2023/08/10 03:51:14;;;;;;;5.43;4.35;;;;;;;9.70;100.00;93447.88;2089686;28;20444;-82
2023/08/10 03:52:15;;;;;;;7.38;4.15;;;;;;;9.70;100.00;93450.53;2089390;28;20032;-80
2023/08/10 03:53:16;;;;;;;6.30;4.00;;;;;;;9.70;100.00;93447.88;2090392;28;20052;-81
2023/08/10 03:54:17;;;;;;;5.40;3.85;;;;;;;9.69;100.00;93446.38;2097906;28;20024;-81
2023/08/10 03:55:19;;;;;;;6.25;4.50;;;;;;;9.70;100.00;93448.66;2098312;28;20024;-82
2023/08/10 03:56:20;;;;;;;7.13;4.20;;;;;;;9.68;100.00;93445.63;2105849;28;20020;-80
2023/08/10 03:57:21;;;;;;;7.15;4.32;;;;;;;9.68;100.00;93445.63;2098090;28;20048;-81
2023/08/10 03:58:22;;;;;;;6.82;4.28;;;;;;;9.64;100.00;93447.56;2106642;28;20496;-82
2023/08/10 03:59:23;;;;;;;7.32;4.63;;;;;;;9.61;100.00;93451.03;2114579;28;20486;-80
2023/08/10 04:00:24;;;;;;;6.50;4.38;;;;;;;9.61;100.00;93453.69;2106670;28;20118;-82
2023/08/10 04:01:26;;;;;;;6.38;4.70;;;;;;;9.52;100.00;93448.09;2106092;28;20020;-81
2023/08/10 04:02:27;;;;;;;9.20;4.03;;;;;;;9.49;100.00;93448.91;2097238;28;20051;-81
2023/08/10 04:03:28;;;;;;;7.45;3.70;;;;;;;9.51;100.00;93449.25;2098223;28;20029;-81
2023/08/10 04:04:29;;;;;;;5.78;3.90;;;;;;;9.55;100.00;93453.41;2097952;28;20021;-81
2023/08/10 04:05:30;;;;;;;6.53;4.13;;;;;;;9.51;100.00;93460.69;2106657;28;20048;-80
2023/08/10 04:06:31;;;;;;;9.10;4.00;;;;;;;9.56;100.00;93454.91;2114627;28;20020;-81
2023/08/10 04:07:33;;;;;;;11.43;4.28;;;;;;;9.56;100.00;93448.81;2106164;28;20158;-81
2023/08/10 04:08:34;;;;;;;6.63;4.20;;;;;;;9.52;100.00;93453.44;2106531;28;20019;-80
2023/08/10 04:09:36;;;;;;;15.95;4.05;;;;;;;9.49;100.00;93455.00;2106275;28;20051;-80
2023/08/10 04:10:37;;;;;;;11.25;4.20;;;;;;;9.55;100.00;93455.31;2106596;28;20020;-81
2023/08/10 04:11:38;;;;;;;6.53;3.75;;;;;;;9.54;100.00;93457.22;2106452;28;20024;-80
2023/08/10 04:12:39;;;;;;;7.10;4.10;;;;;;;9.49;100.00;93449.66;2097750;28;20028;-80
2023/08/10 04:13:40;;;;;;;6.90;3.80;;;;;;;9.46;100.00;93455.03;2106214;28;20484;-81
2023/08/10 04:14:41;;;;;;;4.72;3.83;;;;;;;9.43;100.00;93461.91;2112365;28;20024;-80
2023/08/10 04:15:42;;;;;;;6.85;4.00;;;;;;;9.44;100.00;93454.66;2106187;28;20024;-80
2023/08/10 04:16:43;;;;;;;6.60;4.25;;;;;;;9.40;100.00;93453.97;2114177;28;20023;-81
2023/08/10 04:17:44;;;;;;;5.00;3.58;;;;;;;9.37;100.00;93450.19;2114500;28;20077;-81
2023/08/10 04:18:45;;;;;;;5.57;4.53;;;;;;;9.37;100.00;93454.78;2106122;28;20032;-81
2023/08/10 04:19:45;;;;;;;5.15;3.90;;;;;;;9.29;100.00;93454.09;2106132;28;20027;-80
2023/08/10 04:20:47;;;;;;;7.03;4.07;;;;;;;9.32;100.00;93447.97;2106555;28;20034;-81
2023/08/10 04:21:48;;;;;;;5.32;3.70;;;;;;;9.36;100.00;93442.59;2106307;28;20028;-80
2023/08/10 04:22:48;;;;;;;8.40;4.07;;;;;;;9.33;100.00;93446.81;2114097;28;20083;-81
2023/08/10 04:23:49;;;;;;;7.57;4.10;;;;;;;9.43;100.00;93447.81;2106175;28;20149;-81
2023/08/10 04:24:51;;;;;;;6.20;4.00;;;;;;;9.45;100.00;93448.94;2106342;28;20465;-81
2023/08/10 04:25:52;;;;;;;7.07;4.47;;;;;;;9.40;100.00;93459.31;2098326;28;20032;-80
2023/08/10 04:26:53;;;;;;;5.53;3.83;;;;;;;9.39;100.00;93453.19;2086683;28;20043;-81
2023/08/10 04:27:54;;;;;;;4.85;4.00;;;;;;;9.34;100.00;93443.72;2092460;28;20032;-80
2023/08/10 04:28:55;;;;;;;6.18;3.63;;;;;;;9.36;100.00;93446.00;2114436;28;20107;-81
2023/08/10 04:29:56;;;;;;;6.00;3.25;;;;;;;9.35;100.00;93449.84;2105978;28;20028;-81
2023/08/10 04:30:57;;;;;;;5.93;3.63;;;;;;;9.36;100.00;93445.25;2106180;28;20098;-80
2023/08/10 04:31:58;;;;;;;6.82;3.53;;;;;;;9.36;100.00;93453.28;2114408;28;20046;-80
2023/08/10 04:32:59;;;;;;;7.65;4.68;;;;;;;9.32;100.00;93451.38;2097548;28;20586;-80
2023/08/10 04:34:00;;;;;;;7.20;4.05;;;;;;;9.36;100.00;93451.34;2089844;28;20028;-81
2023/08/10 04:35:02;;;;;;;11.23;3.88;;;;;;;9.34;100.00;93459.72;2097772;28;20503;-80
2023/08/10 04:36:07;;;;;;;7.18;4.18;;;;;;;9.38;100.00;93459.69;2106675;28;20094;-81
2023/08/10 04:37:08;;;;;;;4.60;4.07;;;;;;;9.33;100.00;93458.22;2098589;28;20028;-80
2023/08/10 04:38:10;;;;;;;7.35;4.20;;;;;;;9.36;100.00;93459.34;2089378;28;20021;-81
2023/08/10 04:39:11;;;;;;;7.47;4.63;;;;;;;9.30;100.00;93460.94;2089723;28;20021;-81
2023/08/10 04:40:12;;;;;;;10.52;4.95;;;;;;;9.31;100.00;93465.88;2089320;28;20047;-81
2023/08/10 04:41:15;;;;;;;9.25;4.95;;;;;;;9.29;100.00;93462.09;2105787;28;20032;-81
2023/08/10 04:42:16;;;;;;;6.72;4.53;;;;;;;9.31;100.00;93465.13;2106508;28;20504;-80
2023/08/10 04:43:17;;;;;;;7.07;4.18;;;;;;;9.30;100.00;93453.69;2111601;28;20047;-81
2023/08/10 04:44:18;;;;;;;6.55;4.53;;;;;;;9.30;100.00;93453.69;2115469;28;20027;-80
2023/08/10 04:45:19;;;;;;;5.50;4.38;;;;;;;9.34;100.00;93461.66;2114261;28;20154;-81
2023/08/10 04:46:25;;;;;;;6.25;4.60;;;;;;;9.34;100.00;93464.31;2098266;28;20024;-80
2023/08/10 04:47:26;;;;;;;6.80;4.30;;;;;;;9.34;100.00;93461.66;2098701;28;20479;-80
2023/08/10 04:48:27;;;;;;;4.85;3.85;;;;;;;9.30;100.00;93458.25;2105928;28;20778;-81
2023/08/10 04:49:28;;;;;;;5.10;4.20;;;;;;;9.28;100.00;93458.66;2099594;28;20024;-81
2023/08/10 04:50:29;;;;;;;7.55;4.60;;;;;;;9.34;100.00;93458.97;2097306;28;20032;-80